Time;durP1;ratioP1;P1;durP2;ratioP2;P2;SDS_P1;SDS_P2;PMS_P1;PMS_P2;Temp;Humidity;BMP_temperature;BMP_pressure;BME280_temperature;BME280_humidity;BME280_pressure;Samples;Min_cycle;Max_cycle;Signal;HPM_P1;HPM_P2
2022/11/17 00:01:58;;;;;;;7.70;2.00;;;;;;;0.90;77.73;99624.30;105013;1294;1002933;-74
2022/11/17 00:04:46;;;;;;;7.80;2.30;;;;;;;0.87;77.71;99623.05;105849;1290;67859;-73
2022/11/17 00:07:35;;;;;;;6.00;1.80;;;;;;;0.85;77.95;99624.87;105865;1295;71409;-72
2022/11/17 00:10:23;;;;;;;7.70;2.20;;;;;;;0.86;78.28;99620.44;105695;1298;58541;-74
2022/11/17 00:16:20;;;;;;;6.30;2.20;;;;;;;0.92;78.67;99610.77;105879;1298;71402;-76
2022/11/17 00:22:14;;;;;;;6.20;2.20;;;;;;;0.91;78.61;99603.31;105691;1295;73987;-72
2022/11/17 00:25:02;;;;;;;6.40;2.60;;;;;;;0.88;78.71;99605.35;105842;1292;58934;-73
2022/11/17 00:27:50;;;;;;;5.90;2.00;;;;;;;0.87;78.63;99597.00;105870;1292;58989;-73
2022/11/17 00:34:04;;;;;;;5.80;2.10;;;;;;;0.88;78.50;99596.44;105875;1292;67838;-71
2022/11/17 00:36:54;;;;;;;6.00;1.90;;;;;;;0.89;78.28;99596.58;105852;1292;72881;-72
2022/11/17 00:39:42;;;;;;;6.80;2.50;;;;;;;0.90;78.37;99600.23;105096;1298;1015486;-72
2022/11/17 00:42:29;;;;;;;5.90;2.10;;;;;;;0.90;78.13;99605.11;105888;1285;59093;-73
2022/11/17 00:45:18;;;;;;;6.10;2.00;;;;;;;0.92;78.10;99603.10;105866;1292;73253;-72
2022/11/17 00:48:06;;;;;;;5.60;1.80;;;;;;;0.95;77.89;99602.22;105868;1287;68839;-72
2022/11/17 00:50:53;;;;;;;5.90;2.00;;;;;;;0.97;77.61;99604.95;105852;1292;71281;-72
2022/11/17 00:53:41;;;;;;;6.60;2.30;;;;;;;0.99;77.72;99603.81;105886;1292;57215;-73
2022/11/17 00:56:32;;;;;;;6.30;2.30;;;;;;;1.01;77.60;99599.19;105104;1292;1015182;-73
2022/11/17 00:59:20;;;;;;;6.60;2.30;;;;;;;1.03;77.66;99602.25;105705;1290;71948;-71
2022/11/17 01:02:08;;;;;;;6.00;2.10;;;;;;;1.04;77.72;99598.74;105865;1284;69020;-73
2022/11/17 01:04:56;;;;;;;6.50;2.30;;;;;;;1.07;78.12;99599.96;105841;1293;73487;-74
2022/11/17 01:07:45;;;;;;;6.20;2.40;;;;;;;1.10;78.18;99597.70;105865;1294;57371;-73
2022/11/17 01:10:35;;;;;;;5.70;2.30;;;;;;;1.13;78.24;99592.69;105901;1287;59096;-72
2022/11/17 01:13:23;;;;;;;6.20;2.80;;;;;;;1.13;77.96;99596.55;105158;1293;1002342;-74
2022/11/17 01:16:17;;;;;;;5.70;2.10;;;;;;;1.10;77.27;99594.59;105859;1292;66321;-73
2022/11/17 01:19:06;;;;;;;6.00;2.20;;;;;;;1.07;77.20;99592.98;105881;1292;72666;-73
2022/11/17 01:21:54;;;;;;;5.60;2.20;;;;;;;1.06;77.46;99591.80;105858;1292;57325;-73
2022/11/17 01:24:41;;;;;;;7.80;2.60;;;;;;;1.06;77.80;99592.70;105890;1293;59994;-72
2022/11/17 01:27:29;;;;;;;6.20;2.70;;;;;;;1.08;77.91;99591.88;105877;1292;71678;-72
2022/11/17 01:30:18;;;;;;;6.10;2.70;;;;;;;1.07;77.71;99591.40;105881;1291;68034;-73
2022/11/17 01:33:06;;;;;;;5.60;2.10;;;;;;;1.09;78.03;99589.23;105853;1292;72452;-74
2022/11/17 01:35:54;;;;;;;6.80;2.80;;;;;;;1.08;77.99;99581.75;105831;1291;57825;-72
2022/11/17 01:38:42;;;;;;;7.20;2.80;;;;;;;1.06;77.97;99585.00;105882;1295;60513;-72
2022/11/17 01:41:30;;;;;;;6.40;2.70;;;;;;;1.08;78.15;99577.40;105867;1291;73163;-75
2022/11/17 01:44:36;;;;;;;5.80;2.40;;;;;;;1.10;78.04;99575.39;105768;1300;66960;-74
2022/11/17 01:47:38;;;;;;;6.10;2.60;;;;;;;1.08;77.58;99567.61;105720;1291;72821;-73
2022/11/17 01:50:39;;;;;;;5.80;2.40;;;;;;;1.06;77.34;99569.10;105132;1292;1002227;-73
2022/11/17 01:53:29;;;;;;;6.90;2.50;;;;;;;1.02;76.88;99567.50;105602;1293;60493;-72
2022/11/17 01:56:32;;;;;;;6.30;2.40;;;;;;;1.02;76.58;99568.04;105769;1295;72111;-73
2022/11/17 01:59:41;;;;;;;6.60;2.30;;;;;;;1.01;76.45;99567.23;105846;1292;68578;-73
2022/11/17 02:02:29;;;;;;;5.70;2.20;;;;;;;1.00;76.33;99567.10;105682;1292;72699;-73
2022/11/17 02:05:34;;;;;;;5.40;1.90;;;;;;;0.99;76.04;99568.20;105748;1295;57193;-73
2022/11/17 02:08:26;;;;;;;6.10;2.50;;;;;;;0.94;75.87;99570.16;105871;1292;59058;-73
2022/11/17 02:11:18;;;;;;;6.40;2.00;;;;;;;0.92;75.65;99566.57;105698;1293;72880;-72
2022/11/17 02:14:07;;;;;;;5.80;2.00;;;;;;;0.93;75.96;99560.22;105879;1287;68803;-73
2022/11/17 02:16:55;;;;;;;6.20;2.40;;;;;;;0.95;75.94;99557.73;105697;1290;73160;-72
2022/11/17 02:19:49;;;;;;;6.50;2.40;;;;;;;0.99;76.07;99552.61;105875;1290;57151;-72
2022/11/17 02:22:54;;;;;;;6.70;2.30;;;;;;;1.01;76.22;99551.31;105142;1295;1002839;-71
2022/11/17 02:26:34;;;;;;;6.10;2.20;;;;;;;0.99;76.49;99550.52;105881;1295;70615;-72
2022/11/17 02:29:42;;;;;;;6.10;2.10;;;;;;;1.01;76.81;99553.42;105769;1295;69079;-71
2022/11/17 02:33:16;;;;;;;5.80;2.00;;;;;;;1.01;76.49;99549.39;105730;1294;73924;-72
2022/11/17 02:36:11;;;;;;;6.30;2.30;;;;;;;1.04;76.52;99548.55;105178;1296;57268;-72
2022/11/17 02:39:12;;;;;;;7.30;2.20;;;;;;;1.01;76.08;99551.48;105045;1301;59467;-72
2022/11/17 02:42:15;;;;;;;6.00;2.40;;;;;;;0.99;76.03;99545.27;105157;1301;73982;-72
2022/11/17 02:45:05;;;;;;;6.70;2.20;;;;;;;0.96;75.70;99541.92;105187;1301;68716;-74
2022/11/17 02:47:58;;;;;;;6.70;2.50;;;;;;;0.93;75.77;99543.83;105015;1304;73924;-71
2022/11/17 02:50:48;;;;;;;6.50;2.20;;;;;;;0.89;75.13;99539.11;105014;1303;58795;-72
2022/11/17 02:53:38;;;;;;;5.60;2.20;;;;;;;0.86;75.04;99537.88;105031;1301;59235;-72
2022/11/17 02:56:26;;;;;;;6.10;2.20;;;;;;;0.84;75.36;99537.05;104996;1296;74254;-72
2022/11/17 02:59:20;;;;;;;5.40;1.90;;;;;;;0.87;75.45;99537.81;105179;1299;68064;-73
2022/11/17 03:02:26;;;;;;;6.40;2.00;;;;;;;0.86;75.47;99538.55;105155;1302;73951;-72
2022/11/17 03:05:37;;;;;;;7.10;2.50;;;;;;;0.85;75.66;99542.79;104415;1303;1002809;-72
2022/11/17 03:08:46;;;;;;;6.80;2.70;;;;;;;0.83;75.90;99542.34;104471;1301;1002087;-75
2022/11/17 03:12:17;;;;;;;6.00;2.20;;;;;;;0.89;76.26;99540.52;105197;1299;74223;-72
2022/11/17 03:15:14;;;;;;;5.60;2.00;;;;;;;0.91;76.23;99542.00;105866;1287;69007;-73
2022/11/17 03:18:29;;;;;;;6.30;2.30;;;;;;;0.93;76.28;99536.83;105851;1292;73934;-71
2022/11/17 03:21:31;;;;;;;6.10;2.00;;;;;;;0.95;76.73;99534.14;105736;1300;57160;-73
2022/11/17 03:24:33;;;;;;;5.70;2.10;;;;;;;0.97;76.92;99524.41;105714;1288;60725;-73
2022/11/17 03:27:36;;;;;;;6.00;2.00;;;;;;;0.98;76.90;99523.65;105137;1292;1002479;-72
2022/11/17 03:30:26;;;;;;;5.80;2.20;;;;;;;0.97;76.69;99524.41;105617;1292;66593;-73
2022/11/17 03:33:19;;;;;;;6.40;2.30;;;;;;;0.97;76.71;99523.73;105728;1291;72707;-73
2022/11/17 03:36:13;;;;;;;5.70;2.30;;;;;;;0.97;77.00;99524.59;105576;1294;57141;-75
2022/11/17 03:39:17;;;;;;;6.00;2.10;;;;;;;0.98;77.12;99522.95;105545;1295;61398;-74
2022/11/17 03:42:29;;;;;;;6.40;2.30;;;;;;;1.00;77.16;99516.02;105553;1301;72026;-74
2022/11/17 03:45:23;;;;;;;6.20;1.90;;;;;;;1.02;76.42;99513.89;105576;1287;67802;-74
2022/11/17 03:48:48;;;;;;;5.80;2.00;;;;;;;1.00;76.47;99512.55;105673;1295;73928;-75
2022/11/17 03:51:37;;;;;;;5.70;2.10;;;;;;;0.97;76.37;99514.44;104959;1294;1002090;-73
2022/11/17 03:54:25;;;;;;;5.80;2.00;;;;;;;0.97;76.30;99512.02;105670;1294;59758;-74
2022/11/17 03:57:25;;;;;;;5.70;2.10;;;;;;;0.97;76.72;99511.80;104587;1294;1002354;-74
2022/11/17 04:00:16;;;;;;;5.50;2.30;;;;;;;1.00;76.59;99510.29;105669;1294;67753;-74
2022/11/17 04:03:07;;;;;;;7.10;2.40;;;;;;;1.02;76.62;99504.98;105659;1294;72941;-74
2022/11/17 04:05:54;;;;;;;5.50;1.80;;;;;;;1.03;76.96;99500.39;105702;1294;57260;-74
2022/11/17 04:08:42;;;;;;;6.70;2.00;;;;;;;1.02;77.29;99499.37;105720;1295;60333;-76
2022/11/17 04:17:42;;;;;;;5.60;2.20;;;;;;;1.00;78.19;99498.94;105715;1294;72952;-74
2022/11/17 04:20:34;;;;;;;5.60;2.30;;;;;;;0.98;78.11;99500.94;105718;1294;57206;-73
2022/11/17 04:23:25;;;;;;;7.50;2.40;;;;;;;0.97;77.89;99499.08;105733;1287;58910;-75
2022/11/17 04:29:19;;;;;;;6.20;2.00;;;;;;;0.92;77.38;99492.35;105739;1294;66535;-73
2022/11/17 04:32:07;;;;;;;6.10;2.30;;;;;;;0.92;77.45;99486.60;105699;1287;73744;-73
2022/11/17 04:34:55;;;;;;;6.10;2.20;;;;;;;0.91;76.83;99482.77;105798;1287;57096;-74
2022/11/17 04:37:43;;;;;;;5.90;2.20;;;;;;;0.91;76.92;99484.88;105897;1292;60610;-73
2022/11/17 04:41:52;;;;;;;7.10;2.10;;;;;;;0.92;77.14;99486.77;105878;1292;72209;-72
2022/11/17 04:43:38;;;;;;;5.90;2.10;;;;;;;0.92;77.30;99488.86;105658;1295;67635;-74
2022/11/17 04:46:29;;;;;;;6.10;1.90;;;;;;;0.88;76.69;99491.63;105860;1292;72720;-73
2022/11/17 04:49:19;;;;;;;6.70;2.50;;;;;;;0.83;76.15;99496.21;105882;1298;58941;-77
2022/11/17 04:52:07;;;;;;;6.10;2.20;;;;;;;0.81;76.39;99499.30;105739;1292;60547;-75
2022/11/17 04:54:55;;;;;;;6.80;2.10;;;;;;;0.80;76.34;99498.31;105901;1292;71732;-74
2022/11/17 04:57:43;;;;;;;6.10;2.30;;;;;;;0.79;76.70;99498.50;105550;1292;65720;-75
2022/11/17 05:00:31;;;;;;;5.90;2.20;;;;;;;0.78;76.50;99497.36;105821;1292;72611;-76
2022/11/17 05:03:19;;;;;;;6.40;2.70;;;;;;;0.75;76.74;99498.35;105822;1291;59409;-77
2022/11/17 05:06:10;;;;;;;6.40;2.50;;;;;;;0.72;76.58;99491.33;105837;1292;61159;-75
2022/11/17 05:09:01;;;;;;;7.50;2.40;;;;;;;0.70;76.51;99491.63;105840;1292;71739;-75
2022/11/17 05:14:55;;;;;;;6.10;2.30;;;;;;;0.68;76.44;99481.74;105857;1292;71239;-75
2022/11/17 05:17:43;;;;;;;7.10;2.70;;;;;;;0.67;76.65;99480.90;105697;1287;58068;-75
2022/11/17 05:20:31;;;;;;;6.90;2.80;;;;;;;0.65;76.87;99475.59;105842;1292;58712;-75
2022/11/17 05:26:32;;;;;;;6.50;2.70;;;;;;;0.67;77.32;99473.92;105826;1287;68184;-76
2022/11/17 05:29:22;;;;;;;6.80;2.60;;;;;;;0.67;76.98;99474.27;105088;1295;1002239;-72
2022/11/17 05:32:10;;;;;;;6.40;2.60;;;;;;;0.66;76.93;99474.46;105712;1290;57280;-74
2022/11/17 05:34:58;;;;;;;6.20;2.50;;;;;;;0.68;76.85;99473.19;105868;1292;60376;-73
2022/11/17 05:37:45;;;;;;;6.50;2.70;;;;;;;0.67;76.69;99474.61;105734;1294;71946;-73
2022/11/17 05:40:33;;;;;;;6.80;2.80;;;;;;;0.65;77.10;99473.82;105829;1292;67572;-75
2022/11/17 05:43:22;;;;;;;6.40;2.70;;;;;;;0.64;77.46;99479.83;105825;1292;73560;-74
2022/11/17 05:46:11;;;;;;;6.60;2.90;;;;;;;0.64;77.13;99477.36;105680;1292;219214;-74
2022/11/17 05:48:59;;;;;;;7.00;2.50;;;;;;;0.64;77.28;99484.39;105855;1291;60259;-73
2022/11/17 05:51:46;;;;;;;7.30;2.90;;;;;;;0.62;77.06;99488.84;105852;1285;72933;-72
2022/11/17 05:54:39;;;;;;;7.90;2.90;;;;;;;0.57;76.24;99485.94;105700;1292;68790;-74
2022/11/17 05:57:30;;;;;;;8.00;2.50;;;;;;;0.50;75.88;99493.58;105093;1292;1002436;-75
2022/11/17 06:00:19;;;;;;;9.30;3.00;;;;;;;0.40;75.98;99494.72;105834;1287;57197;-75
2022/11/17 06:03:15;;;;;;;9.30;3.00;;;;;;;0.35;76.09;99499.11;105814;1292;61521;-75
2022/11/17 06:06:03;;;;;;;8.70;2.90;;;;;;;0.26;76.09;99498.29;105842;1285;74099;-75
2022/11/17 06:08:50;;;;;;;8.50;3.00;;;;;;;0.20;76.23;99497.69;105855;1292;67448;-75
2022/11/17 06:11:38;;;;;;;6.40;2.40;;;;;;;0.18;76.69;99501.42;105846;1294;73940;-74
2022/11/17 06:14:26;;;;;;;9.40;3.40;;;;;;;0.12;76.70;99502.73;105839;1293;57167;-74
2022/11/17 06:17:32;;;;;;;7.30;3.20;;;;;;;0.10;76.95;99501.46;105707;1294;59425;-74
2022/11/17 06:20:47;;;;;;;6.70;2.60;;;;;;;0.06;77.12;99499.70;105871;1288;73051;-74
2022/11/17 06:23:36;;;;;;;8.40;2.50;;;;;;;0.05;77.20;99496.93;105260;1284;1002135;-73
2022/11/17 06:26:24;;;;;;;7.50;2.70;;;;;;;0.09;77.24;99505.65;105829;1284;73876;-74
2022/11/17 06:29:13;;;;;;;7.20;3.00;;;;;;;0.09;77.15;99502.70;105836;1294;57669;-74
2022/11/17 06:32:21;;;;;;;6.90;3.20;;;;;;;0.06;77.11;99506.85;104717;1285;1002937;-75
2022/11/17 06:35:13;;;;;;;8.00;3.70;;;;;;;0.03;77.31;99508.56;105857;1292;71881;-74
2022/11/17 06:38:01;;;;;;;6.40;2.60;;;;;;;-0.00;77.47;99510.08;105691;1291;68031;-75
2022/11/17 06:40:51;;;;;;;8.10;3.20;;;;;;;0.02;77.57;99506.32;105511;1292;72773;-76
2022/11/17 06:43:39;;;;;;;9.40;3.50;;;;;;;-0.02;77.58;99504.73;105835;1292;58371;-74
2022/11/17 06:46:36;;;;;;;7.50;3.20;;;;;;;-0.04;77.63;99505.34;105827;1290;61207;-76
2022/11/17 06:49:24;;;;;;;7.60;3.40;;;;;;;-0.05;77.79;99505.73;105815;1293;74155;-76
2022/11/17 06:52:12;;;;;;;8.70;3.30;;;;;;;-0.02;77.89;99507.85;105815;1288;67944;-76
2022/11/17 06:55:00;;;;;;;8.60;3.50;;;;;;;0.05;77.83;99506.20;105831;1290;72683;-75
2022/11/17 06:57:48;;;;;;;7.20;3.30;;;;;;;0.06;77.23;99510.53;105832;1292;57258;-76
2022/11/17 07:00:40;;;;;;;7.10;4.40;;;;;;;0.09;77.32;99508.30;105858;1292;59391;-75
2022/11/17 07:03:28;;;;;;;8.30;3.10;;;;;;;0.09;77.09;99505.13;104872;1292;1002468;-76
2022/11/17 07:06:17;;;;;;;8.00;3.80;;;;;;;0.12;77.23;99510.08;105830;1292;67682;-77
2022/11/17 07:09:05;;;;;;;7.80;3.10;;;;;;;0.11;77.21;99509.42;105833;1292;73921;-77
2022/11/17 07:11:53;;;;;;;7.80;3.70;;;;;;;0.10;76.64;99504.89;105814;1299;58395;-73
2022/11/17 07:14:41;;;;;;;8.40;3.80;;;;;;;0.09;76.64;99503.73;105852;1285;59140;-74
2022/11/17 07:17:30;;;;;;;8.40;3.90;;;;;;;0.05;76.50;99498.33;105850;1292;73087;-73
2022/11/17 07:20:19;;;;;;;7.90;3.60;;;;;;;0.06;76.44;99498.63;105842;1292;68784;-76
2022/11/17 07:23:07;;;;;;;8.60;3.40;;;;;;;0.06;76.64;99501.10;105126;1290;1002237;-78
2022/11/17 07:25:58;;;;;;;9.20;3.60;;;;;;;0.06;76.59;99498.27;105182;1292;1002205;-77
2022/11/17 07:28:46;;;;;;;8.10;4.20;;;;;;;0.08;76.49;99498.70;105787;1294;59089;-76
2022/11/17 07:31:35;;;;;;;8.10;3.30;;;;;;;0.06;76.11;99507.70;105903;1285;71764;-78
2022/11/17 07:34:24;;;;;;;9.20;3.50;;;;;;;0.04;76.46;99509.55;105871;1292;67949;-76
2022/11/17 07:37:12;;;;;;;9.70;3.90;;;;;;;-0.01;76.18;99508.01;105871;1292;73830;-76
2022/11/17 07:40:00;;;;;;;8.50;4.30;;;;;;;0.01;76.52;99508.09;105906;1291;58065;-76
2022/11/17 07:42:48;;;;;;;7.50;3.40;;;;;;;0.03;76.29;99503.84;105903;1293;60356;-76
2022/11/17 07:45:36;;;;;;;8.30;4.00;;;;;;;0.07;76.55;99505.06;105912;1291;72871;-75
2022/11/17 07:48:24;;;;;;;7.70;3.00;;;;;;;0.13;76.34;99507.22;105888;1291;69004;-77
2022/11/17 07:51:12;;;;;;;8.40;4.60;;;;;;;0.17;76.05;99502.52;105878;1288;74013;-77
2022/11/17 07:54:00;;;;;;;9.40;3.80;;;;;;;0.20;75.61;99500.49;105758;1299;59948;-76
2022/11/17 07:56:48;;;;;;;7.80;4.00;;;;;;;0.22;76.09;99499.34;105888;1292;60397;-76
2022/11/17 07:59:36;;;;;;;8.30;3.60;;;;;;;0.24;75.68;99503.25;105883;1292;74021;-77
2022/11/17 08:02:24;;;;;;;8.30;3.20;;;;;;;0.20;75.23;99499.91;105638;1294;69067;-76
2022/11/17 08:05:12;;;;;;;8.00;3.00;;;;;;;0.15;75.29;99501.56;105879;1284;71457;-75
2022/11/17 08:08:00;;;;;;;7.20;3.10;;;;;;;0.19;75.71;99499.10;105876;1292;57224;-78
2022/11/17 08:10:48;;;;;;;10.00;3.70;;;;;;;0.26;75.87;99498.10;105087;1291;1002629;-77
2022/11/17 08:13:37;;;;;;;9.20;3.40;;;;;;;0.30;75.42;99495.30;105131;1292;1002842;-77
2022/11/17 08:16:29;;;;;;;8.10;3.40;;;;;;;0.31;75.31;99488.83;105847;1290;68677;-77
2022/11/17 08:19:17;;;;;;;8.40;3.20;;;;;;;0.32;75.21;99484.21;105893;1292;71327;-76
2022/11/17 08:22:07;;;;;;;6.70;2.70;;;;;;;0.37;75.39;99482.98;105879;1285;57324;-77
2022/11/17 08:24:56;;;;;;;6.90;3.10;;;;;;;0.39;75.10;99488.81;105918;1286;59056;-77
2022/11/17 08:27:45;;;;;;;8.00;2.90;;;;;;;0.42;74.88;99492.16;105121;1292;1003085;-75
2022/11/17 08:30:34;;;;;;;7.30;2.90;;;;;;;0.48;74.85;99495.71;105827;1285;66664;-76
2022/11/17 08:33:22;;;;;;;8.60;3.10;;;;;;;0.54;73.73;99498.47;105858;1287;71099;-75
2022/11/17 08:36:10;;;;;;;6.70;3.30;;;;;;;0.55;73.37;99495.27;105850;1292;57083;-76
2022/11/17 08:38:58;;;;;;;8.20;2.80;;;;;;;0.60;73.65;99496.45;105878;1294;60429;-79
2022/11/17 08:41:46;;;;;;;6.10;2.60;;;;;;;0.61;72.80;99502.67;105890;1290;73002;-76
2022/11/17 08:44:34;;;;;;;9.50;3.00;;;;;;;0.62;72.73;99499.66;105150;1292;1002420;-76
2022/11/17 08:47:22;;;;;;;6.70;2.90;;;;;;;0.59;72.26;99502.06;105912;1292;70855;-75
2022/11/17 08:50:10;;;;;;;7.30;2.70;;;;;;;0.56;72.28;99505.86;105901;1286;57175;-75
2022/11/17 08:52:58;;;;;;;8.20;3.20;;;;;;;0.62;72.48;99504.89;105892;1291;58167;-77
2022/11/17 08:55:48;;;;;;;7.30;2.30;;;;;;;0.68;71.84;99506.20;105162;1291;1002311;-76
2022/11/17 08:58:44;;;;;;;7.40;2.60;;;;;;;0.75;71.36;99506.77;105909;1291;66330;-79
2022/11/17 09:01:32;;;;;;;7.20;2.60;;;;;;;0.70;70.24;99504.15;105181;1292;1002264;-74
2022/11/17 09:04:20;;;;;;;7.60;2.10;;;;;;;0.66;69.91;99506.64;105882;1278;57217;-75
2022/11/17 09:07:08;;;;;;;7.10;2.40;;;;;;;0.67;69.94;99502.89;105917;1291;60355;-75
2022/11/17 09:09:57;;;;;;;6.00;2.20;;;;;;;0.74;70.13;99504.89;105922;1292;71780;-75
2022/11/17 09:12:45;;;;;;;7.50;2.40;;;;;;;0.83;69.56;99505.85;105920;1292;66498;-77
2022/11/17 09:15:33;;;;;;;6.30;2.60;;;;;;;0.91;69.11;99500.77;105885;1285;72118;-76
2022/11/17 09:18:21;;;;;;;7.10;2.40;;;;;;;0.98;67.88;99499.19;105846;1284;57368;-76
2022/11/17 09:21:14;;;;;;;7.30;2.70;;;;;;;1.21;66.96;99492.35;105888;1292;58914;-76
2022/11/17 09:24:02;;;;;;;7.40;2.70;;;;;;;1.61;66.48;99485.54;105034;1295;1002607;-74
2022/11/17 09:26:53;;;;;;;6.00;2.50;;;;;;;1.99;65.43;99485.87;105776;1291;67631;-75
2022/11/17 09:29:41;;;;;;;6.70;3.10;;;;;;;2.27;63.88;99485.99;105748;1294;71057;-77
2022/11/17 09:32:29;;;;;;;7.50;2.90;;;;;;;2.57;62.49;99484.77;105861;1292;57624;-75
2022/11/17 09:35:18;;;;;;;7.10;3.00;;;;;;;3.04;61.31;99478.52;105869;1290;58989;-77
2022/11/17 09:38:08;;;;;;;7.90;2.80;;;;;;;3.84;57.77;99470.80;105116;1291;1003063;-73
2022/11/17 09:40:57;;;;;;;6.90;2.90;;;;;;;4.37;56.42;99468.34;105848;1284;66595;-73
2022/11/17 09:44:03;;;;;;;7.70;3.00;;;;;;;4.77;56.17;99468.47;104985;1292;1002447;-73
2022/11/17 09:47:15;;;;;;;7.90;3.20;;;;;;;5.14;53.38;99462.41;105847;1285;57292;-74
2022/11/17 09:50:24;;;;;;;7.70;2.60;;;;;;;7.49;48.53;99447.11;105848;1284;58843;-73
2022/11/17 09:53:20;;;;;;;6.70;2.70;;;;;;;8.45;45.29;99443.54;105868;1285;74084;-74
2022/11/17 09:56:11;;;;;;;7.70;3.00;;;;;;;7.86;45.10;99442.39;105731;1284;67649;-75
2022/11/17 09:59:04;;;;;;;5.80;2.70;;;;;;;9.09;43.48;99435.14;105841;1292;73520;-75
2022/11/17 10:01:52;;;;;;;6.20;2.70;;;;;;;10.94;39.12;99425.28;105725;1295;57391;-73
2022/11/17 10:04:41;;;;;;;7.20;2.70;;;;;;;11.84;37.94;99421.67;105869;1288;58899;-74
2022/11/17 10:07:33;;;;;;;7.10;3.00;;;;;;;13.63;35.70;99409.09;105861;1292;74312;-76
2022/11/17 10:10:43;;;;;;;6.00;2.70;;;;;;;14.78;33.44;99405.16;105748;1294;66392;-74
2022/11/17 10:13:36;;;;;;;8.20;2.90;;;;;;;15.68;31.69;99402.04;105625;1295;71725;-77
2022/11/17 10:16:24;;;;;;;7.80;2.80;;;;;;;16.15;30.15;99397.52;105775;1292;57811;-72
2022/11/17 10:19:17;;;;;;;7.30;3.20;;;;;;;16.45;29.13;99397.58;105922;1285;58734;-74
2022/11/17 10:22:18;;;;;;;7.10;2.70;;;;;;;17.00;28.61;99394.40;105862;1296;71595;-76
2022/11/17 10:25:39;;;;;;;6.90;2.90;;;;;;;17.31;27.86;99387.48;105715;1287;66500;-75
2022/11/17 10:28:31;;;;;;;6.90;2.70;;;;;;;17.77;27.73;99395.54;105514;1298;73948;-73
2022/11/17 10:31:20;;;;;;;6.30;2.60;;;;;;;17.42;26.03;99394.74;105651;1296;57285;-71
2022/11/17 10:34:28;;;;;;;6.10;2.40;;;;;;;17.41;26.78;99391.17;105623;1295;60056;-72
2022/11/17 10:37:29;;;;;;;5.70;2.00;;;;;;;17.72;26.67;99384.98;105651;1295;73241;-73
2022/11/17 10:40:21;;;;;;;10.00;4.10;;;;;;;17.92;26.62;99381.96;105629;1297;65625;-75
2022/11/17 10:43:13;;;;;;;5.80;2.40;;;;;;;17.94;25.75;99382.27;105617;1298;72539;-72
2022/11/17 10:46:15;;;;;;;5.90;2.60;;;;;;;18.06;25.58;99385.46;105619;1295;57213;-74
2022/11/17 10:50:03;;;;;;;7.60;2.50;;;;;;;17.97;25.59;99384.02;105554;1299;58188;-77
2022/11/17 10:53:41;;;;;;;6.20;2.60;;;;;;;17.06;25.57;99392.25;105621;1298;71250;-73
2022/11/17 10:56:46;;;;;;;7.10;2.40;;;;;;;16.59;26.88;99386.20;105516;1300;67721;-76
2022/11/17 10:59:48;;;;;;;8.70;3.40;;;;;;;16.32;27.32;99384.33;105647;1294;71543;-74
2022/11/17 11:02:44;;;;;;;7.20;2.80;;;;;;;16.31;27.49;99383.71;105848;1290;57906;-74
2022/11/17 11:06:05;;;;;;;6.50;3.10;;;;;;;16.19;27.35;99378.29;105886;1284;61256;-76
2022/11/17 11:09:20;;;;;;;8.10;3.50;;;;;;;15.97;27.72;99378.61;105602;1294;73185;-80
2022/11/17 11:12:17;;;;;;;6.70;3.40;;;;;;;15.61;28.40;99372.63;105733;1295;69087;-80
2022/11/17 11:15:33;;;;;;;6.60;3.10;;;;;;;15.48;28.41;99367.38;105559;1291;75037;-79
2022/11/17 11:18:22;;;;;;;6.70;3.30;;;;;;;15.05;28.53;99364.87;105768;1300;58635;-77
2022/11/17 11:21:16;;;;;;;7.10;3.50;;;;;;;14.84;28.95;99363.37;105886;1292;59151;-75
2022/11/17 11:24:26;;;;;;;7.40;4.10;;;;;;;14.65;29.17;99369.63;105877;1294;73060;-74
2022/11/17 11:27:19;;;;;;;8.60;4.00;;;;;;;14.41;29.43;99369.93;105789;1295;67683;-72
2022/11/17 11:30:14;;;;;;;7.60;3.60;;;;;;;14.09;29.77;99368.58;105898;1296;71387;-70
2022/11/17 11:33:52;;;;;;;6.80;3.70;;;;;;;13.49;30.02;99362.09;105808;1293;57258;-72
2022/11/17 11:37:01;;;;;;;7.50;4.00;;;;;;;13.13;30.93;99361.49;105914;1292;60043;-74
2022/11/17 11:40:07;;;;;;;7.40;4.20;;;;;;;12.47;31.22;99362.08;105876;1291;74441;-78
2022/11/17 11:43:19;;;;;;;8.70;4.60;;;;;;;12.29;32.05;99360.60;105894;1286;69047;-75
2022/11/17 11:46:23;;;;;;;8.40;3.60;;;;;;;11.96;32.36;99361.23;105818;1293;70966;-74
2022/11/17 11:49:32;;;;;;;10.60;4.30;;;;;;;11.33;32.95;99354.41;105904;1292;57369;-73
2022/11/17 11:52:28;;;;;;;7.30;4.10;;;;;;;10.74;34.17;99353.50;105892;1291;60000;-74
2022/11/17 11:55:33;;;;;;;8.70;4.00;;;;;;;10.34;35.07;99350.90;105891;1294;72863;-73
2022/11/17 11:58:23;;;;;;;7.60;4.00;;;;;;;9.95;36.07;99346.42;105913;1293;67849;-72
2022/11/17 12:01:14;;;;;;;9.20;3.90;;;;;;;9.73;37.08;99341.41;105708;1292;73607;-70
2022/11/17 12:04:29;;;;;;;9.40;5.00;;;;;;;9.77;37.40;99344.22;105800;1292;57824;-73
2022/11/17 12:07:39;;;;;;;8.00;4.00;;;;;;;9.63;37.94;99344.91;105877;1297;60349;-72
2022/11/17 12:10:41;;;;;;;7.50;3.50;;;;;;;9.23;38.32;99336.40;105806;1288;74179;-74
2022/11/17 12:13:29;;;;;;;7.80;3.60;;;;;;;9.04;38.94;99331.45;105818;1284;66681;-72
2022/11/17 12:16:26;;;;;;;7.90;3.80;;;;;;;9.03;39.42;99333.83;105778;1292;73152;-76
2022/11/17 12:20:01;;;;;;;8.40;4.10;;;;;;;9.07;39.81;99334.94;105899;1291;57233;-75
2022/11/17 12:23:26;;;;;;;10.60;3.60;;;;;;;8.96;39.82;99333.83;105900;1284;57932;-77
2022/11/17 12:26:27;;;;;;;7.60;3.80;;;;;;;8.75;40.45;99338.20;105758;1292;71755;-78
2022/11/17 12:29:21;;;;;;;7.40;3.90;;;;;;;8.21;41.65;99339.52;105727;1290;65657;-76
2022/11/17 12:32:09;;;;;;;7.30;3.80;;;;;;;7.71;42.73;99339.98;105742;1292;72230;-75
2022/11/17 12:35:30;;;;;;;8.00;3.90;;;;;;;7.29;43.82;99338.30;105708;1295;57336;-73
2022/11/17 12:38:18;;;;;;;7.90;3.80;;;;;;;6.77;45.28;99337.86;105847;1298;60389;-76
2022/11/17 12:41:06;;;;;;;7.80;3.50;;;;;;;6.47;46.02;99339.49;105846;1284;73098;-76
2022/11/17 12:44:33;;;;;;;10.90;4.30;;;;;;;6.33;46.97;99342.13;105831;1288;68976;-73
2022/11/17 12:47:46;;;;;;;14.10;6.10;;;;;;;6.12;47.92;99340.25;105779;1281;71788;-77
2022/11/17 12:51:47;;;;;;;8.90;3.90;;;;;;;5.98;49.08;99342.30;105763;1291;57563;-74
2022/11/17 12:55:02;;;;;;;8.40;3.50;;;;;;;5.63;50.07;99345.52;105734;1294;58690;-77
2022/11/17 12:58:02;;;;;;;8.30;3.20;;;;;;;5.19;51.72;99345.33;105759;1293;73648;-73
2022/11/17 13:01:23;;;;;;;8.10;3.20;;;;;;;4.83;53.07;99344.37;105844;1294;68668;-75
2022/11/17 13:04:23;;;;;;;10.00;3.90;;;;;;;4.49;53.72;99339.71;105830;1291;70997;-77
2022/11/17 13:07:24;;;;;;;10.10;4.40;;;;;;;4.17;54.89;99350.86;105829;1292;57211;-77
2022/11/17 13:10:28;;;;;;;9.50;3.50;;;;;;;3.86;55.46;99351.69;105122;1288;1002240;-75
2022/11/17 13:13:19;;;;;;;8.10;3.60;;;;;;;3.62;56.36;99351.36;105107;1288;1002422;-74
2022/11/17 13:16:20;;;;;;;8.40;3.90;;;;;;;3.37;57.85;99345.52;105856;1295;68139;-78
2022/11/17 13:19:40;;;;;;;7.80;3.20;;;;;;;3.11;58.08;99342.83;105731;1293;72512;-78
2022/11/17 13:22:27;;;;;;;8.50;3.70;;;;;;;2.82;59.09;99339.73;105683;1298;57682;-75
2022/11/17 13:25:21;;;;;;;7.60;3.60;;;;;;;2.63;60.03;99342.05;105833;1291;59938;-73
2022/11/17 13:28:31;;;;;;;8.30;3.70;;;;;;;2.46;60.55;99338.79;105725;1292;72662;-73
2022/11/17 13:31:24;;;;;;;7.90;3.30;;;;;;;2.32;60.81;99333.94;105838;1292;67721;-74
2022/11/17 13:34:13;;;;;;;9.70;3.40;;;;;;;2.19;62.09;99334.84;105716;1293;72783;-72
2022/11/17 13:37:02;;;;;;;8.20;3.50;;;;;;;2.06;62.78;99336.59;105712;1295;57454;-74
2022/11/17 13:40:23;;;;;;;7.90;3.30;;;;;;;1.96;62.96;99337.67;105874;1291;60458;-76
2022/11/17 13:43:19;;;;;;;9.00;3.90;;;;;;;1.84;63.92;99341.64;105843;1287;73794;-76
2022/11/17 13:46:07;;;;;;;9.90;3.10;;;;;;;1.75;64.53;99339.50;105718;1292;66920;-77
2022/11/17 13:48:58;;;;;;;8.30;3.60;;;;;;;1.66;65.26;99336.60;105717;1295;71594;-76
2022/11/17 13:51:46;;;;;;;8.40;4.10;;;;;;;1.63;65.76;99333.29;105690;1295;58421;-77
2022/11/17 13:54:34;;;;;;;7.60;3.30;;;;;;;1.59;66.50;99327.90;105890;1292;61889;-79
2022/11/17 13:57:28;;;;;;;7.50;3.40;;;;;;;1.53;66.92;99328.17;105689;1297;73239;-78
2022/11/17 14:00:19;;;;;;;10.30;3.30;;;;;;;1.49;67.11;99324.38;105786;1294;66507;-78
2022/11/17 14:03:43;;;;;;;7.90;3.50;;;;;;;1.47;67.14;99321.69;105871;1292;74231;-76
2022/11/17 14:06:58;;;;;;;8.60;4.00;;;;;;;1.42;69.58;99316.54;105738;1296;57386;-76